createdAt,value
2023-03-16T00:01:05.343Z,0.20
2023-03-16T00:03:33.896Z,0.18
2023-03-16T00:06:02.020Z,0.14
2023-03-16T00:08:30.138Z,0.17
2023-03-16T00:10:58.736Z,0.09
2023-03-16T00:13:27.675Z,0.07
2023-03-16T00:15:59.678Z,0.09
2023-03-16T00:18:29.144Z,0.00
2023-03-16T00:21:05.509Z,-0.00
2023-03-16T00:23:36.079Z,0.02
2023-03-16T00:26:07.674Z,0.03
2023-03-16T00:28:36.469Z,0.00
2023-03-16T00:31:07.070Z,0.01
2023-03-16T00:33:35.493Z,-0.01
2023-03-16T00:36:09.601Z,-0.05
2023-03-16T00:38:40.619Z,-0.07
2023-03-16T00:41:09.305Z,-0.07
2023-03-16T00:43:43.933Z,-0.07
2023-03-16T00:46:17.354Z,-0.09
2023-03-16T00:48:47.366Z,-0.14
2023-03-16T00:51:18.303Z,-0.09
2023-03-16T00:53:46.741Z,-0.06
2023-03-16T00:56:15.460Z,-0.10
2023-03-16T00:58:44.119Z,-0.16
2023-03-16T01:01:19.048Z,-0.16
2023-03-16T01:03:47.442Z,-0.16
2023-03-16T01:06:17.414Z,-0.15
2023-03-16T01:08:45.822Z,-0.12
2023-03-16T01:11:17.232Z,-0.13
2023-03-16T01:13:49.367Z,-0.17
2023-03-16T01:16:23.401Z,-0.20
2023-03-16T01:18:52.840Z,-0.24
2023-03-16T01:21:22.062Z,-0.28
2023-03-16T01:23:53.939Z,-0.29
2023-03-16T01:26:23.292Z,-0.31
2023-03-16T01:28:51.775Z,-0.32
2023-03-16T01:31:19.999Z,-0.36
2023-03-16T01:33:48.195Z,-0.33
2023-03-16T01:36:21.669Z,-0.32
2023-03-16T01:39:00.325Z,-0.34
2023-03-16T01:41:32.392Z,-0.40
2023-03-16T01:44:00.504Z,-0.40
2023-03-16T01:46:30.144Z,-0.43
2023-03-16T01:49:08.203Z,-0.45
2023-03-16T01:51:43.967Z,-0.49
2023-03-16T01:54:14.756Z,-0.48
2023-03-16T01:56:55.348Z,-0.50
2023-03-16T01:59:32.225Z,-0.53
2023-03-16T02:02:02.621Z,-0.52
2023-03-16T02:04:44.805Z,-0.57
2023-03-16T02:07:17.321Z,-0.54
2023-03-16T02:09:49.233Z,-0.57
2023-03-16T02:12:19.227Z,-0.54
2023-03-16T02:14:52.195Z,-0.57
2023-03-16T02:17:31.924Z,-0.64
2023-03-16T02:20:31.587Z,-0.59
2023-03-16T02:23:00.608Z,-0.57
2023-03-16T02:25:49.062Z,-0.57
2023-03-16T02:28:20.222Z,-0.58
2023-03-16T02:30:49.653Z,-0.61
2023-03-16T02:33:19.766Z,-0.64
2023-03-16T02:35:47.831Z,-0.66
2023-03-16T02:38:15.876Z,-0.67
2023-03-16T02:40:59.740Z,-0.66
2023-03-16T02:43:33.675Z,-0.67
2023-03-16T02:46:11.393Z,-0.69
2023-03-16T02:48:53.487Z,-0.71
2023-03-16T02:51:21.564Z,-0.72
2023-03-16T02:53:49.610Z,-0.71
2023-03-16T02:56:18.025Z,-0.69
2023-03-16T02:58:46.654Z,-0.66
2023-03-16T03:01:17.511Z,-0.70
2023-03-16T03:03:45.641Z,-0.69
2023-03-16T03:06:13.706Z,-0.67
2023-03-16T03:08:42.804Z,-0.71
2023-03-16T03:11:11.104Z,-0.69
2023-03-16T03:13:39.366Z,-0.69
2023-03-16T03:16:12.064Z,-0.67
2023-03-16T03:18:40.161Z,-0.66
2023-03-16T03:21:08.440Z,-0.72
2023-03-16T03:23:36.755Z,-0.66
2023-03-16T03:26:05.167Z,-0.69
2023-03-16T03:28:36.432Z,-0.70
2023-03-16T03:31:04.545Z,-0.67
2023-03-16T03:33:33.877Z,-0.69
2023-03-16T03:36:04.365Z,-0.63
2023-03-16T03:38:36.134Z,-0.64
2023-03-16T03:41:05.220Z,-0.55
2023-03-16T03:43:34.808Z,-0.64
2023-03-16T03:46:04.231Z,-0.64
2023-03-16T03:48:34.344Z,-0.64
2023-03-16T03:51:02.607Z,-0.54
2023-03-16T03:54:06.240Z,-0.48
2023-03-16T03:57:04.461Z,-0.36
2023-03-16T03:59:32.658Z,-0.48
2023-03-16T04:02:21.439Z,-0.43
2023-03-16T04:04:52.115Z,-0.37
2023-03-16T04:07:20.246Z,-0.43
2023-03-16T04:09:48.415Z,-0.41
2023-03-16T04:12:39.499Z,-0.40
2023-03-16T04:15:09.941Z,-0.34
2023-03-16T04:17:46.081Z,-0.49
2023-03-16T04:20:19.169Z,-0.37
2023-03-16T04:22:47.787Z,-0.45
2023-03-16T04:25:18.079Z,-0.52
2023-03-16T04:27:47.029Z,-0.37
2023-03-16T04:30:16.295Z,-0.31
2023-03-16T04:32:47.851Z,-0.27
2023-03-16T04:35:18.754Z,-0.42
2023-03-16T04:37:50.253Z,-0.54
2023-03-16T04:40:19.523Z,-0.55
2023-03-16T04:42:52.157Z,-0.38
2023-03-16T04:45:21.500Z,-0.39
2023-03-16T04:47:50.822Z,-0.32
2023-03-16T04:50:18.960Z,-0.32
2023-03-16T04:52:51.636Z,-0.29
2023-03-16T04:55:19.824Z,-0.29
2023-03-16T04:57:48.743Z,-0.27
2023-03-16T05:00:20.800Z,-0.28
2023-03-16T05:02:55.922Z,-0.33
2023-03-16T05:05:24.098Z,-0.27
2023-03-16T05:07:52.525Z,-0.36
2023-03-16T05:10:22.007Z,-0.24
2023-03-16T05:12:50.015Z,-0.22
2023-03-16T05:15:18.356Z,-0.32
2023-03-16T05:17:56.199Z,-0.29
2023-03-16T05:20:24.859Z,-0.16
2023-03-16T05:22:55.281Z,-0.11
2023-03-16T05:25:32.270Z,-0.08
2023-03-16T05:28:03.767Z,-0.13
2023-03-16T05:30:45.451Z,-0.15
2023-03-16T05:33:16.806Z,-0.14
2023-03-16T05:35:45.330Z,-0.19
2023-03-16T05:38:14.022Z,-0.17
2023-03-16T05:40:42.457Z,-0.02
2023-03-16T05:43:16.720Z,-0.09
2023-03-16T05:45:49.424Z,-0.02
2023-03-16T05:48:21.205Z,0.14
2023-03-16T05:50:53.942Z,0.10
2023-03-16T05:53:29.020Z,0.05
2023-03-16T05:56:02.234Z,0.12
2023-03-16T05:58:34.417Z,0.10
2023-03-16T06:01:05.854Z,0.18
2023-03-16T06:03:34.359Z,0.35
2023-03-16T06:06:02.887Z,0.36
2023-03-16T06:08:34.293Z,0.33
2023-03-16T06:11:08.905Z,0.39
2023-03-16T06:13:38.459Z,0.31
2023-03-16T06:16:06.963Z,0.39
2023-03-16T06:18:36.189Z,0.46
2023-03-16T06:21:04.498Z,0.47
2023-03-16T06:23:34.139Z,0.24
2023-03-16T06:26:02.589Z,0.17
2023-03-16T06:28:31.835Z,0.08
2023-03-16T06:31:00.420Z,0.05
2023-03-16T06:33:31.651Z,0.07
2023-03-16T06:35:59.882Z,0.22
2023-03-16T06:38:33.808Z,0.34
2023-03-16T06:41:11.176Z,0.37
2023-03-16T06:43:40.818Z,0.34
2023-03-16T06:46:09.405Z,0.36
2023-03-16T06:48:37.567Z,0.37
2023-03-16T06:51:07.715Z,0.35
2023-03-16T06:53:36.208Z,0.37
2023-03-16T06:56:05.099Z,0.36
2023-03-16T06:58:36.403Z,0.30
2023-03-16T07:01:04.975Z,0.29
2023-03-16T07:03:33.104Z,0.39
2023-03-16T07:06:06.979Z,0.30
2023-03-16T07:08:35.765Z,0.45
2023-03-16T07:11:04.658Z,0.40
2023-03-16T07:13:34.174Z,0.49
2023-03-16T07:16:02.619Z,0.52
2023-03-16T07:18:32.896Z,0.65
2023-03-16T07:21:01.296Z,0.56
2023-03-16T07:23:30.410Z,0.49
2023-03-16T07:26:03.811Z,0.63
2023-03-16T07:28:32.557Z,0.69
2023-03-16T07:31:04.231Z,0.79
2023-03-16T07:33:39.220Z,0.84
2023-03-16T07:36:10.999Z,0.90
2023-03-16T07:38:43.528Z,0.99
2023-03-16T07:41:12.202Z,1.00
2023-03-16T07:43:40.540Z,1.03
2023-03-16T07:46:14.013Z,1.02
2023-03-16T07:48:44.785Z,0.97
2023-03-16T07:51:14.216Z,1.00
2023-03-16T07:53:43.443Z,0.99
2023-03-16T07:56:28.328Z,1.00
2023-03-16T07:58:59.925Z,1.17
2023-03-16T08:01:28.357Z,0.97
2023-03-16T08:03:56.663Z,0.83
2023-03-16T08:06:26.061Z,0.85
2023-03-16T08:08:54.928Z,0.86
2023-03-16T08:11:31.461Z,0.89
2023-03-16T08:14:02.587Z,0.84
2023-03-16T08:16:45.958Z,0.87
2023-03-16T08:19:14.813Z,0.97
2023-03-16T08:22:00.409Z,1.03
2023-03-16T08:24:32.884Z,1.08
2023-03-16T08:27:01.550Z,1.13
2023-03-16T08:29:30.822Z,1.09
2023-03-16T08:31:59.062Z,1.03
2023-03-16T08:34:32.059Z,1.00
2023-03-16T08:37:01.582Z,1.01
2023-03-16T08:39:30.599Z,1.07
2023-03-16T08:41:58.991Z,1.16
2023-03-16T08:44:36.462Z,1.19
2023-03-16T08:47:05.288Z,1.19
2023-03-16T08:49:34.954Z,1.24
2023-03-16T08:52:13.078Z,1.34
2023-03-16T08:54:49.662Z,1.38
2023-03-16T08:57:18.283Z,1.46
2023-03-16T08:59:46.584Z,1.50
2023-03-16T09:02:14.901Z,1.59
2023-03-16T09:04:43.789Z,1.57
2023-03-16T09:07:13.016Z,1.67
2023-03-16T09:09:41.217Z,1.68
2023-03-16T09:12:09.559Z,1.63
2023-03-16T09:14:38.694Z,1.59
2023-03-16T09:17:12.033Z,1.60
2023-03-16T09:19:51.009Z,1.59
2023-03-16T09:22:26.262Z,1.65
2023-03-16T09:24:54.956Z,1.64
2023-03-16T09:27:23.375Z,1.61
2023-03-16T09:29:53.181Z,1.56
2023-03-16T09:32:21.897Z,1.76
2023-03-16T09:34:50.710Z,1.93
2023-03-16T09:37:19.186Z,1.94
2023-03-16T09:39:48.690Z,1.93
2023-03-16T09:42:25.241Z,1.96
2023-03-16T09:45:18.664Z,2.01
2023-03-16T09:47:50.660Z,2.03
2023-03-16T09:50:30.362Z,1.91
2023-03-16T09:53:30.981Z,1.84
2023-03-16T09:56:04.313Z,1.84
2023-03-16T09:58:33.065Z,1.81
2023-03-16T10:01:16.495Z,1.91
2023-03-16T10:04:30.066Z,2.02
2023-03-16T10:07:04.456Z,2.10
2023-03-16T10:09:58.358Z,1.99
2023-03-16T10:12:32.848Z,1.90
2023-03-16T10:15:07.583Z,1.93
2023-03-16T10:17:41.741Z,1.84
2023-03-16T10:20:22.111Z,1.94
2023-03-16T10:22:52.805Z,1.95
2023-03-16T10:25:39.298Z,1.96
2023-03-16T10:28:07.598Z,1.96
2023-03-16T10:30:38.823Z,1.92
2023-03-16T10:33:31.604Z,2.02
2023-03-16T10:36:12.866Z,2.13
2023-03-16T10:38:46.945Z,2.10
2023-03-16T10:41:18.131Z,2.18
2023-03-16T10:43:49.684Z,2.18
2023-03-16T10:46:18.985Z,2.13
2023-03-16T10:49:01.529Z,2.07
2023-03-16T10:51:33.923Z,2.04
2023-03-16T10:54:31.915Z,1.97
2023-03-16T10:57:00.771Z,1.96
2023-03-16T10:59:34.479Z,2.07
2023-03-16T11:02:15.755Z,2.13
2023-03-16T11:04:44.243Z,2.04
2023-03-16T11:07:17.586Z,2.08
2023-03-16T11:09:47.966Z,2.12
2023-03-16T11:12:30.633Z,2.22
2023-03-16T11:15:20.091Z,2.31
2023-03-16T11:17:54.854Z,2.48
2023-03-16T11:20:30.835Z,2.60
2023-03-16T11:23:00.860Z,2.69
2023-03-16T11:25:41.617Z,2.71
2023-03-16T11:28:17.868Z,2.56
2023-03-16T11:31:01.533Z,2.58
2023-03-16T11:33:31.228Z,2.50
2023-03-16T11:36:18.972Z,2.46
2023-03-16T11:39:10.947Z,2.49
2023-03-16T11:41:57.577Z,2.53
2023-03-16T11:44:42.625Z,2.50
2023-03-16T11:47:37.088Z,2.46
2023-03-16T11:50:15.683Z,2.41
2023-03-16T11:53:00.534Z,2.40
2023-03-16T11:55:34.786Z,2.30
2023-03-16T11:58:32.654Z,2.22
2023-03-16T12:01:16.474Z,2.25
2023-03-16T12:04:10.418Z,2.34
2023-03-16T12:07:03.332Z,2.39
2023-03-16T12:09:51.496Z,2.45
2023-03-16T12:12:35.743Z,2.54
2023-03-16T12:15:18.340Z,2.60
2023-03-16T12:17:48.586Z,2.56
2023-03-16T12:20:25.089Z,2.40
2023-03-16T12:23:22.847Z,2.44
2023-03-16T12:25:53.669Z,2.51
2023-03-16T12:28:25.518Z,2.45
2023-03-16T12:31:02.384Z,2.43
2023-03-16T12:34:08.558Z,2.52
2023-03-16T12:37:03.045Z,2.50
2023-03-16T12:39:51.852Z,2.41
2023-03-16T12:42:45.050Z,2.42
2023-03-16T12:45:37.314Z,2.37
2023-03-16T12:48:18.018Z,2.31
2023-03-16T12:51:03.361Z,2.37
2023-03-16T12:53:46.077Z,2.37
2023-03-16T12:56:19.738Z,2.38
2023-03-16T12:58:51.485Z,2.33
2023-03-16T13:01:28.773Z,2.36
2023-03-16T13:04:07.139Z,2.40
2023-03-16T13:06:36.717Z,2.39
2023-03-16T13:09:07.389Z,2.54
2023-03-16T13:11:50.431Z,2.62
2023-03-16T13:14:38.248Z,2.70
2023-03-16T13:17:24.312Z,2.75
2023-03-16T13:20:00.477Z,2.79
2023-03-16T13:22:43.346Z,2.94
2023-03-16T13:25:23.425Z,2.99
2023-03-16T13:27:59.256Z,3.00
2023-03-16T13:30:31.005Z,2.98
2023-03-16T13:33:27.980Z,3.03
2023-03-16T13:35:59.290Z,3.01
2023-03-16T13:38:31.451Z,3.08
2023-03-16T13:41:06.180Z,3.18
2023-03-16T13:43:38.289Z,3.25
2023-03-16T13:46:18.709Z,3.28
2023-03-16T13:48:49.990Z,2.99
2023-03-16T13:51:22.932Z,2.98
2023-03-16T13:53:51.905Z,2.95
2023-03-16T13:56:27.226Z,2.85
2023-03-16T13:58:58.820Z,2.56
2023-03-16T14:01:32.351Z,2.51
2023-03-16T14:04:08.940Z,2.36
2023-03-16T14:06:37.997Z,2.26
2023-03-16T14:09:13.198Z,2.23
2023-03-16T14:11:42.968Z,2.19
2023-03-16T14:14:25.392Z,2.16
2023-03-16T14:16:54.887Z,2.19
2023-03-16T14:19:32.248Z,2.26
2023-03-16T14:22:07.093Z,2.28
2023-03-16T14:24:39.566Z,2.33
2023-03-16T14:27:17.975Z,2.28
2023-03-16T14:30:00.734Z,2.17
2023-03-16T14:32:32.809Z,2.32
2023-03-16T14:35:18.039Z,2.40
2023-03-16T14:37:52.787Z,2.45
2023-03-16T14:40:31.128Z,2.41
2023-03-16T14:43:03.821Z,2.39
2023-03-16T14:45:36.362Z,2.45
2023-03-16T14:48:17.236Z,2.40
2023-03-16T14:50:46.035Z,2.33
2023-03-16T14:53:14.407Z,2.35
2023-03-16T14:55:43.364Z,2.39
2023-03-16T14:58:12.238Z,2.34
2023-03-16T15:00:52.297Z,2.35
2023-03-16T15:03:30.614Z,2.33
2023-03-16T15:05:59.335Z,2.40
2023-03-16T15:08:32.237Z,2.39
2023-03-16T15:11:05.166Z,2.33
2023-03-16T15:13:53.473Z,2.27
2023-03-16T15:16:23.206Z,2.17
2023-03-16T15:18:52.097Z,2.05
2023-03-16T15:21:23.387Z,1.93
2023-03-16T15:23:51.684Z,1.90
2023-03-16T15:26:27.509Z,1.89
2023-03-16T15:28:57.669Z,1.98
2023-03-16T15:31:26.827Z,1.87
2023-03-16T15:33:55.392Z,1.79
2023-03-16T15:36:25.090Z,1.76
2023-03-16T15:38:55.524Z,1.82
2023-03-16T15:41:30.104Z,1.75
2023-03-16T15:44:01.578Z,1.76
2023-03-16T15:46:29.887Z,1.73
2023-03-16T15:48:58.009Z,1.67
2023-03-16T15:51:30.297Z,1.64
2023-03-16T15:54:02.430Z,1.58
2023-03-16T15:56:44.047Z,1.43
2023-03-16T15:59:19.305Z,1.34
2023-03-16T16:01:48.552Z,1.24
2023-03-16T16:04:23.748Z,1.29
2023-03-16T16:06:55.322Z,1.28
2023-03-16T16:09:23.979Z,1.16
2023-03-16T16:11:52.196Z,1.07
2023-03-16T16:14:25.613Z,1.03
2023-03-16T16:16:54.626Z,0.92
2023-03-16T16:19:22.967Z,0.80
2023-03-16T16:21:51.215Z,0.86
2023-03-16T16:24:19.450Z,0.83
2023-03-16T16:26:54.663Z,0.90
2023-03-16T16:29:27.198Z,0.95
2023-03-16T16:31:55.607Z,0.96
2023-03-16T16:34:25.302Z,0.93
2023-03-16T16:36:55.724Z,0.90
2023-03-16T16:39:24.764Z,0.95
2023-03-16T16:41:55.056Z,0.96
2023-03-16T16:44:27.414Z,0.97
2023-03-16T16:46:56.116Z,0.99
2023-03-16T16:49:26.020Z,1.01
2023-03-16T16:51:54.532Z,1.02
2023-03-16T16:54:26.270Z,0.97
2023-03-16T16:56:56.384Z,0.93
2023-03-16T16:59:33.681Z,0.84
2023-03-16T17:02:13.017Z,0.87
2023-03-16T17:04:41.505Z,0.81
2023-03-16T17:07:11.687Z,0.78
2023-03-16T17:09:40.127Z,0.72
2023-03-16T17:12:21.408Z,0.73
2023-03-16T17:14:50.748Z,0.70
2023-03-16T17:17:18.994Z,0.71
2023-03-16T17:19:48.259Z,0.70
2023-03-16T17:22:28.527Z,0.71
2023-03-16T17:24:57.132Z,0.73
2023-03-16T17:27:29.715Z,0.69
2023-03-16T17:29:58.611Z,0.64
2023-03-16T17:32:26.964Z,0.67
2023-03-16T17:34:55.179Z,0.65
2023-03-16T17:37:23.356Z,0.67
2023-03-16T17:39:52.093Z,0.65
2023-03-16T17:42:20.431Z,0.68
2023-03-16T17:44:53.054Z,0.70
2023-03-16T17:47:24.203Z,0.70
2023-03-16T17:49:52.705Z,0.72
2023-03-16T17:52:23.727Z,0.69
2023-03-16T17:54:53.586Z,0.69
2023-03-16T17:57:28.324Z,0.68
2023-03-16T17:59:56.992Z,0.72
2023-03-16T18:02:50.688Z,0.70
2023-03-16T18:05:22.817Z,0.70
2023-03-16T18:07:52.015Z,0.66
2023-03-16T18:10:24.350Z,0.70
2023-03-16T18:12:59.647Z,0.72
2023-03-16T18:15:31.387Z,0.75
2023-03-16T18:18:00.847Z,0.72
2023-03-16T18:20:34.454Z,0.69
2023-03-16T18:23:15.445Z,0.71
2023-03-16T18:25:44.276Z,0.74
2023-03-16T18:32:52.079Z,0.67
2023-03-16T18:35:21.635Z,0.66
2023-03-16T18:37:50.964Z,0.66
2023-03-16T18:40:19.704Z,0.70
2023-03-16T18:42:47.875Z,0.73
2023-03-16T18:45:16.692Z,0.74
2023-03-16T18:47:55.689Z,0.76
2023-03-16T18:50:28.211Z,0.79
2023-03-16T18:52:57.515Z,0.84
2023-03-16T18:55:26.177Z,0.82
2023-03-16T18:57:57.559Z,0.81
2023-03-16T19:00:27.227Z,0.83
2023-03-16T19:02:59.546Z,0.83
2023-03-16T19:05:36.968Z,0.88
2023-03-16T19:08:06.870Z,0.88
2023-03-16T19:10:47.116Z,0.88
2023-03-16T19:13:19.405Z,0.86
2023-03-16T19:15:49.057Z,0.88
2023-03-16T19:18:17.382Z,0.80
2023-03-16T19:20:50.041Z,0.85
2023-03-16T19:23:34.177Z,0.90
2023-03-16T19:26:03.041Z,0.93
2023-03-16T19:28:36.791Z,0.92
2023-03-16T19:31:24.219Z,0.93
2023-03-16T19:33:52.886Z,0.89
2023-03-16T19:36:31.755Z,0.92
2023-03-16T19:39:00.254Z,0.86
2023-03-16T19:41:32.986Z,0.82
2023-03-16T19:44:26.364Z,0.86
2023-03-16T19:46:55.186Z,0.83
2023-03-16T19:49:24.890Z,0.79
2023-03-16T19:51:54.856Z,0.80
2023-03-16T19:54:26.221Z,0.77
2023-03-16T19:56:56.806Z,0.81
2023-03-16T19:59:28.754Z,0.80
2023-03-16T20:01:57.057Z,0.77
2023-03-16T20:04:26.832Z,0.68
2023-03-16T20:06:56.420Z,0.65
2023-03-16T20:09:24.638Z,0.61
2023-03-16T20:11:52.694Z,0.58
2023-03-16T20:14:27.346Z,0.54
2023-03-16T20:16:56.096Z,0.58
2023-03-16T20:19:24.752Z,0.58
2023-03-16T20:21:52.910Z,0.52
2023-03-16T20:24:22.267Z,0.47
2023-03-16T20:26:51.561Z,0.48
2023-03-16T20:29:33.449Z,0.46
2023-03-16T20:32:03.684Z,0.54
2023-03-16T20:34:32.310Z,0.54
2023-03-16T20:37:00.640Z,0.52
2023-03-16T20:39:28.720Z,0.54
2023-03-16T20:41:57.169Z,0.52
2023-03-16T20:44:26.697Z,0.51
2023-03-16T20:46:54.764Z,0.48
2023-03-16T20:49:22.974Z,0.42
2023-03-16T20:51:51.553Z,0.37
2023-03-16T20:54:19.619Z,0.37
2023-03-16T20:56:48.293Z,0.38
2023-03-16T20:59:24.851Z,0.39
2023-03-16T21:01:55.742Z,0.39
2023-03-16T21:04:27.618Z,0.40
2023-03-16T21:06:56.861Z,0.40
2023-03-16T21:09:25.082Z,0.40
2023-03-16T21:11:53.244Z,0.38
2023-03-16T21:14:23.400Z,0.34
2023-03-16T21:16:53.221Z,0.37
2023-03-16T21:19:23.383Z,0.36
2023-03-16T21:21:51.669Z,0.38
2023-03-16T21:24:19.948Z,0.38
2023-03-16T21:26:48.686Z,0.41
2023-03-16T21:29:24.289Z,0.42
2023-03-16T21:31:52.840Z,0.39
2023-03-16T21:34:25.443Z,0.42
2023-03-16T21:36:53.674Z,0.43
2023-03-16T21:39:25.160Z,0.44
2023-03-16T21:41:53.757Z,0.37
2023-03-16T21:44:21.973Z,0.37
2023-03-16T21:46:51.078Z,0.31
2023-03-16T21:49:19.879Z,0.29
2023-03-16T21:51:50.182Z,0.29
2023-03-16T21:54:19.368Z,0.26
2023-03-16T21:56:50.424Z,0.27
2023-03-16T21:59:18.580Z,0.17
2023-03-16T22:02:00.733Z,0.14
2023-03-16T22:04:29.878Z,0.06
2023-03-16T22:06:58.010Z,-0.02
2023-03-16T22:09:30.321Z,-0.10
2023-03-16T22:11:58.717Z,-0.12
2023-03-16T22:14:27.364Z,-0.19
2023-03-16T22:16:56.597Z,-0.25
2023-03-16T22:19:27.389Z,-0.45
2023-03-16T22:21:56.975Z,-0.55
2023-03-16T22:24:28.378Z,-0.64
2023-03-16T22:26:58.199Z,-0.69
2023-03-16T22:29:31.749Z,-0.83
2023-03-16T22:32:04.572Z,-0.88
2023-03-16T22:34:41.726Z,-0.85
2023-03-16T22:37:13.282Z,-0.84
2023-03-16T22:39:41.588Z,-0.82
2023-03-16T22:42:27.082Z,-0.81
2023-03-16T22:44:56.245Z,-0.85
2023-03-16T22:47:28.008Z,-0.86
2023-03-16T22:49:56.083Z,-0.87
2023-03-16T22:52:30.328Z,-0.91
2023-03-16T22:55:01.515Z,-0.92
2023-03-16T22:57:31.039Z,-1.00
2023-03-16T23:00:07.184Z,-1.07
2023-03-16T23:02:35.267Z,-1.13
2023-03-16T23:05:19.307Z,-1.21
2023-03-16T23:07:48.068Z,-1.31
2023-03-16T23:10:21.278Z,-1.40
2023-03-16T23:12:50.650Z,-1.45
2023-03-16T23:15:23.298Z,-1.58
2023-03-16T23:17:52.504Z,-1.68
2023-03-16T23:20:32.678Z,-1.79
2023-03-16T23:23:00.969Z,-1.91
2023-03-16T23:25:29.139Z,-1.92
2023-03-16T23:27:59.005Z,-1.99
2023-03-16T23:30:27.468Z,-2.06
2023-03-16T23:32:56.950Z,-2.12
2023-03-16T23:35:30.986Z,-2.13
2023-03-16T23:37:59.358Z,-2.06
2023-03-16T23:40:29.196Z,-2.05
2023-03-16T23:43:00.766Z,-2.16
2023-03-16T23:45:38.561Z,-2.14
2023-03-16T23:48:13.717Z,-2.24
2023-03-16T23:50:42.726Z,-2.25
2023-03-16T23:53:17.654Z,-2.35
2023-03-16T23:55:47.264Z,-2.36
2023-03-16T23:58:18.604Z,-2.37
